createdAt,value
2022-09-16T00:00:30.102Z,8.20
2022-09-16T00:02:57.410Z,7.13
2022-09-16T00:05:24.982Z,8.40
2022-09-16T00:07:51.800Z,8.23
2022-09-16T00:10:18.621Z,8.80
2022-09-16T00:12:45.375Z,8.20
2022-09-16T00:15:13.651Z,8.20
2022-09-16T00:17:40.358Z,8.60
2022-09-16T00:20:07.994Z,8.17
2022-09-16T00:22:35.407Z,8.40
2022-09-16T00:25:02.162Z,7.70
2022-09-16T00:27:28.953Z,9.07
2022-09-16T00:29:55.644Z,7.50
2022-09-16T00:32:24.073Z,9.80
2022-09-16T00:34:51.449Z,8.97
2022-09-16T00:37:18.280Z,8.37
2022-09-16T00:39:47.295Z,7.40
2022-09-16T00:42:14.203Z,8.80
2022-09-16T00:44:59.022Z,9.37
2022-09-16T00:47:36.763Z,10.17
2022-09-16T00:50:26.923Z,8.70
2022-09-16T00:52:54.975Z,8.97
2022-09-16T00:55:28.825Z,8.13
2022-09-16T00:58:00.738Z,7.63
2022-09-16T01:00:27.537Z,8.23
2022-09-16T01:02:54.272Z,9.20
2022-09-16T01:05:25.931Z,8.67
2022-09-16T01:07:54.373Z,8.47
2022-09-16T01:10:23.749Z,7.93
2022-09-16T01:12:57.211Z,8.07
2022-09-16T01:15:35.384Z,9.33
2022-09-16T01:18:28.717Z,7.97
2022-09-16T01:21:21.422Z,8.37
2022-09-16T01:24:04.320Z,8.50
2022-09-16T01:27:04.947Z,7.83
2022-09-16T01:30:23.425Z,6.43
2022-09-16T01:33:19.040Z,7.20
2022-09-16T01:36:16.714Z,7.13
2022-09-16T01:38:59.342Z,7.97
2022-09-16T01:41:45.956Z,7.43
2022-09-16T01:44:27.745Z,8.90
2022-09-16T01:47:01.933Z,8.10
2022-09-16T01:49:42.066Z,7.53
2022-09-16T01:52:14.765Z,7.63
2022-09-16T01:54:59.450Z,8.43
2022-09-16T01:57:49.319Z,8.47
2022-09-16T02:00:16.966Z,7.23
2022-09-16T02:02:59.007Z,6.87
2022-09-16T02:05:34.516Z,6.80
2022-09-16T02:08:09.387Z,7.17
2022-09-16T02:10:41.758Z,6.53
2022-09-16T02:13:30.911Z,5.90
2022-09-16T02:16:04.403Z,7.17
2022-09-16T02:18:35.690Z,6.60
2022-09-16T02:21:07.023Z,7.10
2022-09-16T02:23:46.005Z,7.40
2022-09-16T02:26:17.669Z,7.63
2022-09-16T02:28:47.513Z,7.73
2022-09-16T02:31:16.663Z,6.40
2022-09-16T02:33:53.058Z,5.80
2022-09-16T02:36:22.518Z,6.50
2022-09-16T02:38:54.149Z,6.90
2022-09-16T02:41:20.921Z,7.20
2022-09-16T02:43:47.635Z,7.43
2022-09-16T02:46:32.053Z,6.50
2022-09-16T02:49:37.699Z,7.10
2022-09-16T02:52:23.370Z,6.93
2022-09-16T02:55:28.028Z,7.97
2022-09-16T02:57:54.782Z,6.67
2022-09-16T03:00:22.355Z,7.80
2022-09-16T03:02:49.353Z,8.00
2022-09-16T03:05:16.116Z,7.57
2022-09-16T03:07:43.119Z,7.73
2022-09-16T03:10:12.946Z,8.10
2022-09-16T03:12:56.651Z,13.73
2022-09-16T03:16:01.655Z,16.60
2022-09-16T03:18:47.342Z,7.73
2022-09-16T03:21:39.936Z,7.73
2022-09-16T03:24:29.842Z,7.57
2022-09-16T03:27:07.775Z,8.30
2022-09-16T03:29:54.680Z,8.00
2022-09-16T03:32:42.331Z,8.60
2022-09-16T03:35:14.851Z,8.70
2022-09-16T03:37:43.633Z,7.30
2022-09-16T03:40:17.432Z,8.73
2022-09-16T03:42:44.960Z,7.87
2022-09-16T03:45:20.423Z,11.40
2022-09-16T03:47:49.639Z,8.47
2022-09-16T03:50:17.594Z,7.57
2022-09-16T03:52:44.327Z,7.87
2022-09-16T03:55:11.451Z,7.67
2022-09-16T03:57:38.655Z,7.93
2022-09-16T04:00:08.114Z,8.33
2022-09-16T04:02:35.743Z,8.80
2022-09-16T04:05:02.607Z,9.37
2022-09-16T04:07:29.666Z,8.87
2022-09-16T04:09:56.423Z,8.90
2022-09-16T04:12:23.071Z,8.97
2022-09-16T04:14:50.826Z,8.30
2022-09-16T04:17:17.563Z,8.20
2022-09-16T04:19:44.306Z,8.23
2022-09-16T04:22:11.034Z,8.90
2022-09-16T04:24:37.730Z,9.20
2022-09-16T04:27:04.414Z,10.10
2022-09-16T04:29:32.346Z,9.63
2022-09-16T04:31:59.084Z,10.10
2022-09-16T04:34:25.805Z,9.27
2022-09-16T04:36:52.536Z,10.07
2022-09-16T04:39:20.327Z,9.00
2022-09-16T04:41:47.135Z,10.97
2022-09-16T04:44:15.207Z,9.40
2022-09-16T04:46:41.977Z,8.97
2022-09-16T04:49:08.760Z,9.10
2022-09-16T04:51:35.445Z,9.83
2022-09-16T04:54:02.147Z,9.97
2022-09-16T04:56:31.356Z,9.70
2022-09-16T04:59:03.095Z,8.30
2022-09-16T05:01:32.886Z,9.30
2022-09-16T05:04:02.787Z,9.67
2022-09-16T05:06:32.454Z,8.50
2022-09-16T05:09:03.132Z,9.23
2022-09-16T05:11:36.629Z,10.00
2022-09-16T05:14:05.549Z,9.23
2022-09-16T05:16:32.962Z,9.90
2022-09-16T05:19:01.819Z,11.10
2022-09-16T05:21:29.051Z,10.10
2022-09-16T05:23:59.562Z,9.73
2022-09-16T05:26:29.701Z,10.33
2022-09-16T05:28:56.454Z,9.97
2022-09-16T05:31:26.668Z,10.77
2022-09-16T05:34:00.644Z,10.23
2022-09-16T05:36:29.452Z,10.33
2022-09-16T05:39:21.089Z,10.87
2022-09-16T05:41:43.438Z,10.50
2022-09-16T05:44:10.865Z,9.80
2022-09-16T05:46:40.579Z,9.83
2022-09-16T05:49:08.534Z,10.33
2022-09-16T05:51:36.541Z,9.00
2022-09-16T05:54:03.276Z,9.87
2022-09-16T05:56:31.302Z,9.77
2022-09-16T05:58:59.970Z,10.20
2022-09-16T06:01:29.672Z,9.30
2022-09-16T06:03:56.534Z,8.60
2022-09-16T06:06:34.732Z,9.57
2022-09-16T06:09:16.739Z,9.50
2022-09-16T06:11:46.491Z,9.27
2022-09-16T06:14:14.244Z,10.17
2022-09-16T06:16:41.918Z,9.97
2022-09-16T06:19:13.271Z,10.37
2022-09-16T06:21:41.143Z,11.40
2022-09-16T06:24:10.736Z,10.37
2022-09-16T06:26:39.809Z,10.67
2022-09-16T06:29:07.317Z,9.90
2022-09-16T06:31:35.147Z,9.63
2022-09-16T06:34:02.264Z,9.00
2022-09-16T06:36:31.735Z,9.20
2022-09-16T06:38:58.501Z,10.10
2022-09-16T06:41:25.320Z,10.20
2022-09-16T06:43:52.438Z,9.37
2022-09-16T06:46:22.033Z,9.67
2022-09-16T06:48:52.934Z,9.87
2022-09-16T06:51:23.003Z,9.30
2022-09-16T06:53:50.901Z,10.30
2022-09-16T06:56:20.474Z,10.43
2022-09-16T06:58:50.332Z,11.57
2022-09-16T07:01:19.738Z,9.60
2022-09-16T07:03:49.208Z,9.47
2022-09-16T07:06:17.160Z,9.67
2022-09-16T07:08:44.776Z,10.50
2022-09-16T07:11:20.446Z,10.53
2022-09-16T07:13:48.711Z,11.00
2022-09-16T07:16:21.146Z,10.20
2022-09-16T07:18:48.487Z,9.13
2022-09-16T07:21:18.472Z,10.07
2022-09-16T07:23:46.819Z,9.30
2022-09-16T07:26:18.499Z,10.30
2022-09-16T07:28:47.077Z,9.77
2022-09-16T07:31:16.954Z,10.37
2022-09-16T07:33:47.684Z,9.00
2022-09-16T07:36:24.600Z,9.10
2022-09-16T07:38:52.070Z,9.90
2022-09-16T07:41:21.175Z,10.27
2022-09-16T07:43:49.173Z,10.10
2022-09-16T07:46:18.649Z,8.83
2022-09-16T07:48:47.785Z,8.47
2022-09-16T07:51:25.551Z,10.10
2022-09-16T07:53:59.346Z,8.70
2022-09-16T07:56:29.171Z,9.60
2022-09-16T07:58:57.172Z,9.40
2022-09-16T08:01:24.702Z,9.30
2022-09-16T08:03:51.776Z,9.27
2022-09-16T08:06:22.409Z,9.90
2022-09-16T08:08:53.116Z,9.03
2022-09-16T08:11:23.757Z,8.43
2022-09-16T08:13:50.614Z,9.50
2022-09-16T08:16:20.519Z,9.80
2022-09-16T08:18:50.428Z,8.43
2022-09-16T08:21:23.656Z,9.67
2022-09-16T08:23:50.678Z,9.80
2022-09-16T08:26:18.746Z,10.10
2022-09-16T08:29:04.926Z,10.40
2022-09-16T08:31:33.453Z,9.20
2022-09-16T08:34:00.416Z,9.70
2022-09-16T08:36:27.387Z,10.43
2022-09-16T08:38:57.459Z,9.03
2022-09-16T08:41:51.340Z,10.67
2022-09-16T08:44:43.505Z,11.43
2022-09-16T08:47:42.643Z,10.00
2022-09-16T08:50:17.938Z,9.40
2022-09-16T08:52:45.774Z,10.60
2022-09-16T08:55:31.708Z,10.50
2022-09-16T08:58:11.425Z,9.77
2022-09-16T09:00:39.649Z,7.87
2022-09-16T09:03:30.356Z,8.13
2022-09-16T09:05:59.209Z,7.60
2022-09-16T09:08:44.882Z,8.00
2022-09-16T09:11:28.069Z,6.43
2022-09-16T09:14:27.424Z,4.53
2022-09-16T09:17:04.967Z,9.63
2022-09-16T09:19:41.099Z,7.17
2022-09-16T09:22:46.032Z,6.13
2022-09-16T09:25:45.360Z,4.80
2022-09-16T09:28:33.248Z,6.47
2022-09-16T09:31:23.983Z,5.43
2022-09-16T09:34:05.853Z,6.17
2022-09-16T09:36:45.300Z,6.23
2022-09-16T09:39:38.255Z,7.47
2022-09-16T09:42:40.429Z,7.73
2022-09-16T09:45:18.571Z,7.70
2022-09-16T09:48:30.268Z,6.30
2022-09-16T09:51:02.685Z,6.97
2022-09-16T09:53:47.183Z,7.87
2022-09-16T09:56:35.139Z,7.40
2022-09-16T09:59:20.520Z,7.00
2022-09-16T10:01:47.429Z,7.43
2022-09-16T10:04:15.702Z,6.27
2022-09-16T10:06:45.906Z,6.73
2022-09-16T10:09:15.609Z,5.97
2022-09-16T10:11:52.085Z,5.43
2022-09-16T10:14:33.873Z,6.80
2022-09-16T10:17:14.031Z,6.93
2022-09-16T10:20:01.469Z,6.50
2022-09-16T10:22:30.551Z,5.80
2022-09-16T10:24:59.962Z,14.57
2022-09-16T10:27:36.490Z,8.30
2022-09-16T10:30:10.606Z,6.73
2022-09-16T10:32:49.163Z,6.07
2022-09-16T10:35:27.767Z,6.70
2022-09-16T10:37:59.590Z,6.90
2022-09-16T10:40:27.058Z,7.20
2022-09-16T10:43:04.453Z,6.57
2022-09-16T10:45:35.526Z,7.57
2022-09-16T10:48:08.197Z,7.30
2022-09-16T10:50:37.910Z,7.80
2022-09-16T10:53:22.225Z,7.47
2022-09-16T10:55:58.264Z,8.10
2022-09-16T10:58:25.175Z,8.33
2022-09-16T11:01:10.373Z,8.70
2022-09-16T11:03:49.848Z,8.77
2022-09-16T11:06:25.271Z,10.50
2022-09-16T11:09:15.951Z,7.40
2022-09-16T11:12:01.914Z,6.93
2022-09-16T11:15:10.069Z,7.63
2022-09-16T11:18:22.608Z,5.63
2022-09-16T11:21:24.015Z,5.87
2022-09-16T11:24:18.295Z,6.20
2022-09-16T11:27:03.566Z,7.20
2022-09-16T11:29:48.635Z,5.60
2022-09-16T11:32:26.708Z,4.90
2022-09-16T11:35:23.206Z,4.80
2022-09-16T11:38:42.374Z,5.47
2022-09-16T11:41:24.589Z,4.00
2022-09-16T11:44:03.316Z,4.37
2022-09-16T11:46:55.517Z,4.97
2022-09-16T11:49:47.154Z,5.10
2022-09-16T11:52:25.955Z,4.30
2022-09-16T11:55:16.429Z,4.20
2022-09-16T11:57:48.402Z,5.17
2022-09-16T12:00:18.613Z,3.77
2022-09-16T12:03:19.979Z,4.77
2022-09-16T12:05:53.505Z,4.50
2022-09-16T12:08:30.277Z,4.50
2022-09-16T12:11:24.476Z,4.60
2022-09-16T12:14:05.429Z,3.93
2022-09-16T12:16:55.278Z,2.83
2022-09-16T12:19:28.397Z,3.20
2022-09-16T12:22:10.972Z,3.70
2022-09-16T12:24:48.217Z,4.47
2022-09-16T12:27:49.048Z,4.27
2022-09-16T12:30:25.233Z,4.23
2022-09-16T12:33:17.311Z,4.93
2022-09-16T12:35:59.773Z,4.70
2022-09-16T12:38:26.595Z,4.77
2022-09-16T12:41:08.153Z,4.00
2022-09-16T12:43:49.763Z,4.63
2022-09-16T12:46:36.968Z,4.70
2022-09-16T12:49:40.908Z,4.30
2022-09-16T12:52:33.971Z,4.50
2022-09-16T12:55:19.414Z,3.40
2022-09-16T12:58:15.451Z,3.73
2022-09-16T13:01:16.290Z,3.83
2022-09-16T13:03:48.834Z,4.10
2022-09-16T13:06:20.208Z,3.60
2022-09-16T13:08:47.146Z,4.60
2022-09-16T13:14:27.654Z,4.47
2022-09-16T13:16:57.209Z,5.33
2022-09-16T13:19:39.429Z,4.30
2022-09-16T13:22:19.626Z,6.60
2022-09-16T13:24:53.099Z,6.60
2022-09-16T13:27:34.495Z,4.50
2022-09-16T13:30:11.399Z,4.53
2022-09-16T13:32:40.814Z,4.27
2022-09-16T13:35:19.695Z,3.87
2022-09-16T13:37:47.739Z,4.10
2022-09-16T13:40:28.912Z,3.77
2022-09-16T13:43:10.631Z,4.70
2022-09-16T13:45:46.605Z,4.47
2022-09-16T13:48:21.579Z,3.87
2022-09-16T13:50:58.842Z,3.80
2022-09-16T13:53:53.091Z,4.10
2022-09-16T13:56:40.553Z,4.50
2022-09-16T13:59:27.467Z,3.97
2022-09-16T14:02:13.918Z,3.77
2022-09-16T14:04:41.654Z,3.63
2022-09-16T14:07:14.296Z,3.63
2022-09-16T14:09:46.682Z,3.63
2022-09-16T14:12:23.528Z,3.90
2022-09-16T14:14:50.988Z,3.93
2022-09-16T14:17:24.077Z,4.03
2022-09-16T14:19:56.009Z,4.03
2022-09-16T14:22:25.663Z,4.20
2022-09-16T14:25:00.780Z,3.80
2022-09-16T14:27:39.917Z,4.20
2022-09-16T14:30:16.871Z,4.50
2022-09-16T14:32:44.604Z,5.00
2022-09-16T14:35:18.888Z,5.47
2022-09-16T14:37:47.683Z,4.57
2022-09-16T14:40:17.926Z,4.67
2022-09-16T14:42:59.014Z,5.40
2022-09-16T14:45:26.900Z,3.93
2022-09-16T14:47:55.564Z,4.90
2022-09-16T14:50:36.160Z,4.60
2022-09-16T14:53:05.345Z,4.47
2022-09-16T14:55:36.153Z,4.30
2022-09-16T14:58:03.374Z,4.27
2022-09-16T15:00:44.193Z,4.23
2022-09-16T15:03:22.723Z,4.53
2022-09-16T15:05:50.202Z,4.27
2022-09-16T15:08:29.313Z,3.30
2022-09-16T15:11:04.678Z,4.00
2022-09-16T15:13:37.507Z,3.90
2022-09-16T15:16:12.500Z,3.70
2022-09-16T15:18:44.172Z,4.53
2022-09-16T15:21:24.848Z,4.43
2022-09-16T15:23:54.765Z,4.00
2022-09-16T15:26:25.487Z,4.67
2022-09-16T15:29:04.325Z,4.63
2022-09-16T15:31:40.368Z,4.40
2022-09-16T15:34:19.033Z,3.90
2022-09-16T15:36:58.784Z,4.60
2022-09-16T15:39:30.569Z,5.07
2022-09-16T15:42:10.297Z,4.60
2022-09-16T15:44:39.013Z,4.90
2022-09-16T15:47:06.130Z,4.90
2022-09-16T15:49:39.568Z,4.97
2022-09-16T15:52:10.082Z,5.47
2022-09-16T15:54:48.025Z,5.50
2022-09-16T15:57:37.036Z,5.03
2022-09-16T16:00:15.937Z,5.63
2022-09-16T16:02:49.522Z,6.03
2022-09-16T16:05:23.729Z,5.47
2022-09-16T16:07:55.603Z,4.77
2022-09-16T16:10:32.072Z,5.20
2022-09-16T16:13:01.261Z,5.57
2022-09-16T16:15:31.734Z,4.90
2022-09-16T16:18:01.382Z,6.00
2022-09-16T16:20:28.741Z,5.90
2022-09-16T16:22:55.915Z,5.83
2022-09-16T16:25:22.828Z,6.70
2022-09-16T16:27:49.880Z,4.70
2022-09-16T16:30:16.614Z,5.53
2022-09-16T16:32:43.537Z,5.87
2022-09-16T16:35:10.526Z,5.80
2022-09-16T16:37:52.728Z,5.97
2022-09-16T16:40:19.881Z,5.40
2022-09-16T16:42:46.599Z,8.10
2022-09-16T16:45:14.557Z,7.10
2022-09-16T16:47:42.057Z,5.70
2022-09-16T16:50:09.314Z,5.50
2022-09-16T16:52:36.216Z,5.00
2022-09-16T16:55:02.920Z,5.87
2022-09-16T16:57:29.692Z,6.30
2022-09-16T16:59:56.511Z,5.60
2022-09-16T17:02:23.507Z,5.00
2022-09-16T17:04:50.317Z,5.03
2022-09-16T17:07:32.483Z,5.20
2022-09-16T17:09:59.500Z,4.90
2022-09-16T17:12:27.022Z,5.30
2022-09-16T17:14:53.862Z,6.00
2022-09-16T17:17:20.670Z,7.00
2022-09-16T17:19:47.366Z,5.73
2022-09-16T17:22:14.082Z,5.77
2022-09-16T17:24:40.876Z,10.50
2022-09-16T17:27:07.614Z,7.17
2022-09-16T17:29:34.587Z,6.77
2022-09-16T17:32:02.955Z,6.83
2022-09-16T17:34:30.211Z,6.47
2022-09-16T17:36:58.333Z,7.27
2022-09-16T17:39:25.831Z,6.37
2022-09-16T17:41:54.424Z,6.23
2022-09-16T17:44:21.505Z,6.70
2022-09-16T17:46:48.534Z,7.30
2022-09-16T17:49:18.038Z,7.70
2022-09-16T17:51:45.337Z,6.10
2022-09-16T17:54:12.803Z,7.30
2022-09-16T17:56:41.047Z,7.40
2022-09-16T17:59:07.887Z,7.20
2022-09-16T18:01:35.143Z,6.73
2022-09-16T18:04:02.122Z,7.70
2022-09-16T18:06:35.924Z,6.80
2022-09-16T18:09:04.694Z,7.23
2022-09-16T18:11:31.403Z,13.10
2022-09-16T18:14:01.141Z,15.90
2022-09-16T18:16:29.393Z,7.30
2022-09-16T18:18:59.195Z,7.80
2022-09-16T18:21:27.025Z,7.70
2022-09-16T18:23:59.575Z,7.97
2022-09-16T18:26:26.992Z,8.00
2022-09-16T18:29:11.529Z,7.63
2022-09-16T18:31:44.040Z,9.17
2022-09-16T18:34:11.583Z,8.50
2022-09-16T18:36:39.325Z,9.80
2022-09-16T18:39:07.702Z,8.00
2022-09-16T18:41:37.406Z,8.57
2022-09-16T18:44:07.656Z,8.60
2022-09-16T18:46:36.669Z,7.93
2022-09-16T18:49:04.819Z,8.70
2022-09-16T18:51:34.270Z,8.20
2022-09-16T18:54:03.382Z,7.77
2022-09-16T18:56:32.971Z,8.33
2022-09-16T18:59:24.251Z,7.20
2022-09-16T19:01:53.409Z,7.27
2022-09-16T19:04:24.359Z,7.23
2022-09-16T19:06:53.412Z,6.87
2022-09-16T19:09:22.291Z,7.03
2022-09-16T19:11:49.814Z,6.80
2022-09-16T19:14:16.796Z,6.47
2022-09-16T19:16:44.999Z,6.10
2022-09-16T19:19:13.873Z,5.07
2022-09-16T19:21:42.120Z,5.73
2022-09-16T19:24:14.153Z,5.40
2022-09-16T19:26:41.782Z,5.53
2022-09-16T19:29:09.391Z,5.43
2022-09-16T19:31:39.357Z,5.20
2022-09-16T19:34:06.832Z,4.60
2022-09-16T19:36:34.636Z,4.70
2022-09-16T19:39:02.326Z,5.10
2022-09-16T19:41:31.232Z,5.33
2022-09-16T19:44:00.347Z,5.00
2022-09-16T19:46:28.584Z,4.90
2022-09-16T19:48:55.849Z,4.07
2022-09-16T19:51:24.575Z,4.30
2022-09-16T19:53:52.813Z,4.50
2022-09-16T19:56:25.750Z,4.10
2022-09-16T19:58:53.617Z,4.67
2022-09-16T20:01:26.057Z,4.70
2022-09-16T20:03:53.903Z,4.40
2022-09-16T20:06:23.090Z,4.90
2022-09-16T20:08:56.737Z,4.40
2022-09-16T20:11:25.734Z,4.73
2022-09-16T20:13:58.981Z,4.47
2022-09-16T20:16:31.408Z,4.10
2022-09-16T20:18:58.200Z,5.47
2022-09-16T20:21:26.546Z,4.30
2022-09-16T20:23:54.330Z,4.60
2022-09-16T20:26:22.372Z,5.07
2022-09-16T20:28:51.323Z,4.83
2022-09-16T20:31:26.597Z,5.07
2022-09-16T20:33:54.009Z,5.03
2022-09-16T20:36:23.424Z,5.43
2022-09-16T20:38:51.185Z,5.53
2022-09-16T20:41:23.630Z,5.73
2022-09-16T20:43:51.400Z,5.27
2022-09-16T20:46:19.464Z,6.60
2022-09-16T20:48:46.304Z,9.50
2022-09-16T20:51:15.299Z,6.50
2022-09-16T20:53:43.076Z,4.80
2022-09-16T20:56:14.782Z,5.07
2022-09-16T20:58:44.036Z,5.47
2022-09-16T21:01:11.894Z,5.00
2022-09-16T21:03:39.526Z,4.70
2022-09-16T21:06:15.768Z,5.53
2022-09-16T21:08:43.052Z,5.67
2022-09-16T21:11:11.537Z,5.30
2022-09-16T21:13:41.262Z,5.83
2022-09-16T21:16:13.298Z,5.20
2022-09-16T21:18:41.683Z,6.37
2022-09-16T21:21:12.904Z,4.83
2022-09-16T21:23:39.921Z,5.73
2022-09-16T21:26:15.531Z,5.53
2022-09-16T21:28:43.514Z,5.63
2022-09-16T21:31:15.236Z,4.57
2022-09-16T21:33:44.660Z,4.20
2022-09-16T21:36:13.678Z,3.90
2022-09-16T21:38:41.203Z,4.23
2022-09-16T21:41:12.826Z,4.97
2022-09-16T21:43:42.313Z,4.93
2022-09-16T21:46:13.791Z,4.80
2022-09-16T21:48:42.524Z,4.97
2022-09-16T21:51:12.487Z,4.27
2022-09-16T21:53:43.655Z,5.33
2022-09-16T21:56:16.198Z,4.17
2022-09-16T21:58:43.470Z,3.40
2022-09-16T22:01:17.468Z,4.70
2022-09-16T22:03:46.593Z,3.40
2022-09-16T22:06:15.511Z,3.20
2022-09-16T22:08:48.971Z,3.90
2022-09-16T22:11:19.146Z,3.27
2022-09-16T22:13:46.161Z,4.80
2022-09-16T22:16:26.528Z,4.00
2022-09-16T22:19:07.216Z,3.90
2022-09-16T22:21:37.957Z,3.50
2022-09-16T22:24:05.235Z,3.80
2022-09-16T22:26:32.215Z,3.70
2022-09-16T22:28:59.460Z,3.63
2022-09-16T22:31:31.937Z,3.17
2022-09-16T22:34:01.192Z,3.53
2022-09-16T22:36:30.947Z,4.33
2022-09-16T22:39:13.154Z,3.90
2022-09-16T22:41:39.863Z,2.63
2022-09-16T22:44:06.605Z,3.33
2022-09-16T22:46:39.661Z,2.90
2022-09-16T22:49:06.494Z,2.50
2022-09-16T22:51:33.203Z,2.40
2022-09-16T22:54:00.001Z,2.37
2022-09-16T22:56:31.963Z,3.17
2022-09-16T22:59:03.705Z,3.00
2022-09-16T23:01:33.976Z,2.43
2022-09-16T23:04:02.943Z,2.10
2022-09-16T23:06:31.669Z,2.30
2022-09-16T23:08:58.509Z,2.57
2022-09-16T23:11:28.702Z,2.43
2022-09-16T23:13:56.413Z,2.27
2022-09-16T23:16:31.747Z,2.03
2022-09-16T23:19:01.786Z,2.07
2022-09-16T23:21:29.221Z,2.17
2022-09-16T23:23:57.520Z,2.40
2022-09-16T23:26:27.304Z,1.80
2022-09-16T23:28:56.824Z,1.43
2022-09-16T23:31:26.505Z,2.10
2022-09-16T23:33:54.432Z,1.93
2022-09-16T23:36:21.886Z,2.10
2022-09-16T23:38:48.641Z,1.93
2022-09-16T23:41:19.667Z,1.80
2022-09-16T23:43:48.010Z,2.30
2022-09-16T23:46:17.009Z,2.27
2022-09-16T23:48:44.805Z,2.03
2022-09-16T23:51:12.658Z,1.57
2022-09-16T23:53:40.335Z,1.93
2022-09-16T23:56:11.602Z,2.30
2022-09-16T23:58:39.272Z,1.90
